sensor_id;sensor_type;location;lat;lon;timestamp;P1;durP1;ratioP1;P2;durP2;ratioP2
42846;SDS011;28495;49.916;14.536;2023-01-13T00:01:43;0.77;;;0.68;;
42846;SDS011;28495;49.916;14.536;2023-01-13T00:07:03;1.02;;;0.68;;
42846;SDS011;28495;49.916;14.536;2023-01-13T00:12:24;1.48;;;0.77;;
42846;SDS011;28495;49.916;14.536;2023-01-13T00:17:45;1.95;;;0.70;;
42846;SDS011;28495;49.916;14.536;2023-01-13T00:23:07;0.75;;;0.50;;
42846;SDS011;28495;49.916;14.536;2023-01-13T00:28:28;1.13;;;0.65;;
42846;SDS011;28495;49.916;14.536;2023-01-13T00:33:49;2.88;;;0.90;;
42846;SDS011;28495;49.916;14.536;2023-01-13T00:39:11;1.48;;;0.73;;
42846;SDS011;28495;49.916;14.536;2023-01-13T00:44:32;2.00;;;0.80;;
42846;SDS011;28495;49.916;14.536;2023-01-13T00:49:53;2.58;;;0.93;;
42846;SDS011;28495;49.916;14.536;2023-01-13T00:55:15;4.65;;;1.00;;
42846;SDS011;28495;49.916;14.536;2023-01-13T01:00:36;0.77;;;0.60;;
42846;SDS011;28495;49.916;14.536;2023-01-13T01:06:02;0.77;;;0.57;;
42846;SDS011;28495;49.916;14.536;2023-01-13T01:11:26;1.88;;;0.93;;
42846;SDS011;28495;49.916;14.536;2023-01-13T01:16:49;1.38;;;0.60;;
42846;SDS011;28495;49.916;14.536;2023-01-13T01:22:09;3.05;;;0.70;;
42846;SDS011;28495;49.916;14.536;2023-01-13T01:27:30;1.45;;;0.75;;
42846;SDS011;28495;49.916;14.536;2023-01-13T01:32:51;0.75;;;0.40;;
42846;SDS011;28495;49.916;14.536;2023-01-13T01:38:12;1.52;;;0.52;;
42846;SDS011;28495;49.916;14.536;2023-01-13T01:43:55;0.68;;;0.45;;
42846;SDS011;28495;49.916;14.536;2023-01-13T01:55:00;1.52;;;0.70;;
42846;SDS011;28495;49.916;14.536;2023-01-13T02:00:31;2.15;;;0.80;;
42846;SDS011;28495;49.916;14.536;2023-01-13T02:05:52;2.25;;;0.80;;
42846;SDS011;28495;49.916;14.536;2023-01-13T02:11:25;1.45;;;0.65;;
42846;SDS011;28495;49.916;14.536;2023-01-13T02:23:32;1.42;;;0.70;;
42846;SDS011;28495;49.916;14.536;2023-01-13T02:29:07;0.80;;;0.45;;
42846;SDS011;28495;49.916;14.536;2023-01-13T02:35:03;0.75;;;0.40;;
42846;SDS011;28495;49.916;14.536;2023-01-13T02:40:36;2.83;;;0.60;;
42846;SDS011;28495;49.916;14.536;2023-01-13T02:46:09;0.73;;;0.40;;
42846;SDS011;28495;49.916;14.536;2023-01-13T02:51:35;0.80;;;0.63;;
42846;SDS011;28495;49.916;14.536;2023-01-13T02:56:58;0.73;;;0.55;;
42846;SDS011;28495;49.916;14.536;2023-01-13T03:02:20;2.33;;;0.57;;
42846;SDS011;28495;49.916;14.536;2023-01-13T03:24:20;2.22;;;0.80;;
42846;SDS011;28495;49.916;14.536;2023-01-13T03:30:08;0.88;;;0.55;;
42846;SDS011;28495;49.916;14.536;2023-01-13T03:35:37;3.20;;;0.45;;
42846;SDS011;28495;49.916;14.536;2023-01-13T03:41:07;1.15;;;0.30;;
42846;SDS011;28495;49.916;14.536;2023-01-13T03:46:37;2.25;;;0.75;;
42846;SDS011;28495;49.916;14.536;2023-01-13T03:52:02;2.17;;;0.63;;
42846;SDS011;28495;49.916;14.536;2023-01-13T03:57:28;1.42;;;0.50;;
42846;SDS011;28495;49.916;14.536;2023-01-13T04:02:55;1.00;;;0.70;;
42846;SDS011;28495;49.916;14.536;2023-01-13T04:08:23;0.75;;;0.50;;
42846;SDS011;28495;49.916;14.536;2023-01-13T04:13:47;1.23;;;0.40;;
42846;SDS011;28495;49.916;14.536;2023-01-13T04:19:09;1.15;;;0.50;;
42846;SDS011;28495;49.916;14.536;2023-01-13T04:24:30;0.63;;;0.43;;
42846;SDS011;28495;49.916;14.536;2023-01-13T04:29:50;0.63;;;0.40;;
42846;SDS011;28495;49.916;14.536;2023-01-13T04:35:11;0.60;;;0.40;;
42846;SDS011;28495;49.916;14.536;2023-01-13T04:40:32;0.50;;;0.50;;
42846;SDS011;28495;49.916;14.536;2023-01-13T04:45:52;0.90;;;0.50;;
42846;SDS011;28495;49.916;14.536;2023-01-13T04:51:13;0.57;;;0.45;;
42846;SDS011;28495;49.916;14.536;2023-01-13T04:56:34;1.88;;;0.60;;
42846;SDS011;28495;49.916;14.536;2023-01-13T05:01:54;1.15;;;0.52;;
42846;SDS011;28495;49.916;14.536;2023-01-13T05:07:15;0.77;;;0.50;;
42846;SDS011;28495;49.916;14.536;2023-01-13T05:12:37;1.75;;;0.40;;
42846;SDS011;28495;49.916;14.536;2023-01-13T05:18:16;0.68;;;0.40;;
42846;SDS011;28495;49.916;14.536;2023-01-13T05:23:38;0.30;;;0.30;;
42846;SDS011;28495;49.916;14.536;2023-01-13T05:29:17;2.08;;;0.82;;
42846;SDS011;28495;49.916;14.536;2023-01-13T05:34:38;0.75;;;0.40;;
42846;SDS011;28495;49.916;14.536;2023-01-13T05:39:59;0.77;;;0.43;;
42846;SDS011;28495;49.916;14.536;2023-01-13T05:45:38;2.05;;;0.40;;
42846;SDS011;28495;49.916;14.536;2023-01-13T05:50:59;0.93;;;0.70;;
42846;SDS011;28495;49.916;14.536;2023-01-13T05:56:21;0.45;;;0.25;;
42846;SDS011;28495;49.916;14.536;2023-01-13T06:01:42;1.23;;;0.52;;
42846;SDS011;28495;49.916;14.536;2023-01-13T06:07:02;0.50;;;0.50;;
42846;SDS011;28495;49.916;14.536;2023-01-13T06:12:23;0.95;;;0.65;;
42846;SDS011;28495;49.916;14.536;2023-01-13T06:17:44;2.42;;;0.50;;
42846;SDS011;28495;49.916;14.536;2023-01-13T06:23:06;1.58;;;0.80;;
42846;SDS011;28495;49.916;14.536;2023-01-13T06:28:28;0.52;;;0.40;;
42846;SDS011;28495;49.916;14.536;2023-01-13T06:33:51;0.40;;;0.40;;
42846;SDS011;28495;49.916;14.536;2023-01-13T06:39:15;1.15;;;0.50;;
42846;SDS011;28495;49.916;14.536;2023-01-13T06:44:39;0.63;;;0.57;;
42846;SDS011;28495;49.916;14.536;2023-01-13T06:49:59;0.57;;;0.40;;
42846;SDS011;28495;49.916;14.536;2023-01-13T06:55:20;0.40;;;0.40;;
42846;SDS011;28495;49.916;14.536;2023-01-13T07:00:41;1.23;;;0.50;;
42846;SDS011;28495;49.916;14.536;2023-01-13T07:06:02;0.43;;;0.43;;
42846;SDS011;28495;49.916;14.536;2023-01-13T07:11:23;1.33;;;0.50;;
42846;SDS011;28495;49.916;14.536;2023-01-13T07:16:44;1.85;;;0.77;;
42846;SDS011;28495;49.916;14.536;2023-01-13T07:22:05;3.35;;;0.68;;
42846;SDS011;28495;49.916;14.536;2023-01-13T07:27:27;4.00;;;0.60;;
42846;SDS011;28495;49.916;14.536;2023-01-13T07:32:47;2.85;;;0.80;;
42846;SDS011;28495;49.916;14.536;2023-01-13T07:38:08;2.72;;;0.80;;
42846;SDS011;28495;49.916;14.536;2023-01-13T07:43:29;1.45;;;0.45;;
42846;SDS011;28495;49.916;14.536;2023-01-13T07:48:53;1.65;;;0.60;;
42846;SDS011;28495;49.916;14.536;2023-01-13T07:54:14;1.55;;;1.17;;
42846;SDS011;28495;49.916;14.536;2023-01-13T07:59:34;0.65;;;0.65;;
42846;SDS011;28495;49.916;14.536;2023-01-13T08:04:56;0.60;;;0.60;;
42846;SDS011;28495;49.916;14.536;2023-01-13T08:10:17;1.02;;;0.40;;
42846;SDS011;28495;49.916;14.536;2023-01-13T08:15:38;0.82;;;0.40;;
42846;SDS011;28495;49.916;14.536;2023-01-13T08:21:05;1.23;;;0.57;;
42846;SDS011;28495;49.916;14.536;2023-01-13T08:26:28;1.13;;;0.63;;
42846;SDS011;28495;49.916;14.536;2023-01-13T08:31:48;1.92;;;0.70;;
42846;SDS011;28495;49.916;14.536;2023-01-13T08:37:09;2.53;;;0.90;;
42846;SDS011;28495;49.916;14.536;2023-01-13T08:42:30;0.73;;;0.55;;
42846;SDS011;28495;49.916;14.536;2023-01-13T08:47:50;1.15;;;0.52;;
42846;SDS011;28495;49.916;14.536;2023-01-13T08:53:11;4.25;;;0.68;;
42846;SDS011;28495;49.916;14.536;2023-01-13T08:58:32;0.90;;;0.70;;
42846;SDS011;28495;49.916;14.536;2023-01-13T09:03:53;0.50;;;0.50;;
42846;SDS011;28495;49.916;14.536;2023-01-13T09:09:15;2.17;;;0.57;;
42846;SDS011;28495;49.916;14.536;2023-01-13T09:14:36;1.23;;;0.63;;
42846;SDS011;28495;49.916;14.536;2023-01-13T09:19:58;1.42;;;0.70;;
42846;SDS011;28495;49.916;14.536;2023-01-13T09:25:18;0.38;;;0.38;;
42846;SDS011;28495;49.916;14.536;2023-01-13T09:30:39;4.10;;;1.42;;
42846;SDS011;28495;49.916;14.536;2023-01-13T09:36:00;2.33;;;0.57;;
42846;SDS011;28495;49.916;14.536;2023-01-13T09:41:21;0.85;;;0.70;;
42846;SDS011;28495;49.916;14.536;2023-01-13T09:47:03;0.98;;;0.50;;
42846;SDS011;28495;49.916;14.536;2023-01-13T09:52:35;2.20;;;0.75;;
42846;SDS011;28495;49.916;14.536;2023-01-13T09:57:56;1.20;;;0.95;;
42846;SDS011;28495;49.916;14.536;2023-01-13T10:03:26;1.38;;;0.60;;
42846;SDS011;28495;49.916;14.536;2023-01-13T10:08:49;1.13;;;0.50;;
42846;SDS011;28495;49.916;14.536;2023-01-13T10:14:18;3.25;;;0.80;;
42846;SDS011;28495;49.916;14.536;2023-01-13T10:19:55;2.58;;;0.63;;
42846;SDS011;28495;49.916;14.536;2023-01-13T10:25:29;0.50;;;0.50;;
42846;SDS011;28495;49.916;14.536;2023-01-13T10:30:53;1.05;;;0.40;;
42846;SDS011;28495;49.916;14.536;2023-01-13T10:36:15;1.08;;;0.60;;
42846;SDS011;28495;49.916;14.536;2023-01-13T10:41:40;1.30;;;0.50;;
42846;SDS011;28495;49.916;14.536;2023-01-13T10:47:04;1.70;;;0.65;;
42846;SDS011;28495;49.916;14.536;2023-01-13T10:53:01;1.02;;;0.55;;
42846;SDS011;28495;49.916;14.536;2023-01-13T10:58:35;1.45;;;0.55;;
42846;SDS011;28495;49.916;14.536;2023-01-13T11:03:56;0.88;;;0.50;;
42846;SDS011;28495;49.916;14.536;2023-01-13T11:09:20;1.35;;;0.60;;
42846;SDS011;28495;49.916;14.536;2023-01-13T11:14:44;1.00;;;0.30;;
42846;SDS011;28495;49.916;14.536;2023-01-13T11:25:38;0.60;;;0.55;;
42846;SDS011;28495;49.916;14.536;2023-01-13T11:36:50;1.02;;;0.60;;
42846;SDS011;28495;49.916;14.536;2023-01-13T11:42:31;1.58;;;0.82;;
42846;SDS011;28495;49.916;14.536;2023-01-13T11:48:16;1.10;;;0.77;;
42846;SDS011;28495;49.916;14.536;2023-01-13T11:53:46;0.65;;;0.50;;
42846;SDS011;28495;49.916;14.536;2023-01-13T12:05:09;1.05;;;0.60;;
42846;SDS011;28495;49.916;14.536;2023-01-13T12:16:47;2.45;;;0.88;;
42846;SDS011;28495;49.916;14.536;2023-01-13T12:27:43;6.03;;;1.05;;
42846;SDS011;28495;49.916;14.536;2023-01-13T12:33:30;1.88;;;0.70;;
42846;SDS011;28495;49.916;14.536;2023-01-13T12:50:57;0.47;;;0.30;;
42846;SDS011;28495;49.916;14.536;2023-01-13T12:56:39;2.33;;;0.55;;
42846;SDS011;28495;49.916;14.536;2023-01-13T13:08:04;1.17;;;0.70;;
42846;SDS011;28495;49.916;14.536;2023-01-13T13:13:39;2.25;;;0.50;;
42846;SDS011;28495;49.916;14.536;2023-01-13T13:24:40;1.58;;;0.77;;
42846;SDS011;28495;49.916;14.536;2023-01-13T13:30:12;1.27;;;0.80;;
42846;SDS011;28495;49.916;14.536;2023-01-13T13:35:39;4.22;;;0.80;;
42846;SDS011;28495;49.916;14.536;2023-01-13T13:41:21;1.23;;;0.60;;
42846;SDS011;28495;49.916;14.536;2023-01-13T13:47:03;0.63;;;0.50;;
42846;SDS011;28495;49.916;14.536;2023-01-13T13:52:28;1.60;;;0.30;;
42846;SDS011;28495;49.916;14.536;2023-01-13T13:57:53;0.20;;;0.20;;
42846;SDS011;28495;49.916;14.536;2023-01-13T14:03:22;0.43;;;0.32;;
42846;SDS011;28495;49.916;14.536;2023-01-13T14:08:48;0.38;;;0.30;;
42846;SDS011;28495;49.916;14.536;2023-01-13T14:14:13;0.28;;;0.28;;
42846;SDS011;28495;49.916;14.536;2023-01-13T14:19:36;0.52;;;0.50;;
42846;SDS011;28495;49.916;14.536;2023-01-13T14:25:02;0.90;;;0.52;;
42846;SDS011;28495;49.916;14.536;2023-01-13T14:30:43;0.40;;;0.30;;
42846;SDS011;28495;49.916;14.536;2023-01-13T14:36:11;0.35;;;0.30;;
42846;SDS011;28495;49.916;14.536;2023-01-13T14:47:02;2.42;;;0.80;;
42846;SDS011;28495;49.916;14.536;2023-01-13T14:52:45;0.60;;;0.43;;
42846;SDS011;28495;49.916;14.536;2023-01-13T15:03:40;0.65;;;0.50;;
42846;SDS011;28495;49.916;14.536;2023-01-13T15:09:09;1.17;;;0.60;;
42846;SDS011;28495;49.916;14.536;2023-01-13T15:14:31;1.75;;;0.85;;
42846;SDS011;28495;49.916;14.536;2023-01-13T15:19:53;0.60;;;0.60;;
42846;SDS011;28495;49.916;14.536;2023-01-13T15:25:14;1.00;;;0.60;;
42846;SDS011;28495;49.916;14.536;2023-01-13T15:30:35;1.20;;;0.45;;
42846;SDS011;28495;49.916;14.536;2023-01-13T15:35:56;2.22;;;1.00;;
42846;SDS011;28495;49.916;14.536;2023-01-13T15:41:17;2.28;;;0.98;;
42846;SDS011;28495;49.916;14.536;2023-01-13T15:47:00;1.70;;;1.00;;
42846;SDS011;28495;49.916;14.536;2023-01-13T15:52:25;2.00;;;1.13;;
42846;SDS011;28495;49.916;14.536;2023-01-13T15:57:49;2.28;;;0.90;;
42846;SDS011;28495;49.916;14.536;2023-01-13T16:03:11;1.67;;;1.08;;
42846;SDS011;28495;49.916;14.536;2023-01-13T16:08:33;1.65;;;1.08;;
42846;SDS011;28495;49.916;14.536;2023-01-13T16:13:54;3.15;;;0.70;;
42846;SDS011;28495;49.916;14.536;2023-01-13T16:19:14;2.13;;;0.90;;
42846;SDS011;28495;49.916;14.536;2023-01-13T16:24:35;2.00;;;1.10;;
42846;SDS011;28495;49.916;14.536;2023-01-13T16:29:58;3.00;;;1.30;;
42846;SDS011;28495;49.916;14.536;2023-01-13T16:35:20;2.85;;;1.35;;
42846;SDS011;28495;49.916;14.536;2023-01-13T16:40:44;1.83;;;1.08;;
42846;SDS011;28495;49.916;14.536;2023-01-13T16:46:19;1.17;;;0.93;;
42846;SDS011;28495;49.916;14.536;2023-01-13T16:51:40;2.63;;;1.30;;
42846;SDS011;28495;49.916;14.536;2023-01-13T16:57:02;2.17;;;1.00;;
42846;SDS011;28495;49.916;14.536;2023-01-13T17:02:24;2.35;;;1.40;;
42846;SDS011;28495;49.916;14.536;2023-01-13T17:07:46;2.25;;;1.38;;
42846;SDS011;28495;49.916;14.536;2023-01-13T17:13:07;2.75;;;1.60;;
42846;SDS011;28495;49.916;14.536;2023-01-13T17:18:36;3.97;;;1.52;;
42846;SDS011;28495;49.916;14.536;2023-01-13T17:23:56;3.03;;;1.50;;
42846;SDS011;28495;49.916;14.536;2023-01-13T17:29:18;3.08;;;1.55;;
42846;SDS011;28495;49.916;14.536;2023-01-13T17:34:41;1.05;;;0.90;;
42846;SDS011;28495;49.916;14.536;2023-01-13T17:40:03;2.35;;;0.70;;
42846;SDS011;28495;49.916;14.536;2023-01-13T17:45:24;1.05;;;0.60;;
42846;SDS011;28495;49.916;14.536;2023-01-13T17:50:46;2.17;;;1.05;;
42846;SDS011;28495;49.916;14.536;2023-01-13T17:56:08;1.75;;;0.75;;
42846;SDS011;28495;49.916;14.536;2023-01-13T18:01:30;1.55;;;0.80;;
42846;SDS011;28495;49.916;14.536;2023-01-13T18:06:52;3.08;;;0.70;;
42846;SDS011;28495;49.916;14.536;2023-01-13T18:12:15;3.35;;;1.02;;
42846;SDS011;28495;49.916;14.536;2023-01-13T18:17:36;2.08;;;1.05;;
42846;SDS011;28495;49.916;14.536;2023-01-13T18:22:57;1.80;;;0.93;;
42846;SDS011;28495;49.916;14.536;2023-01-13T18:28:36;2.38;;;1.17;;
42846;SDS011;28495;49.916;14.536;2023-01-13T18:33:57;2.13;;;1.42;;
42846;SDS011;28495;49.916;14.536;2023-01-13T18:39:18;3.03;;;1.90;;
42846;SDS011;28495;49.916;14.536;2023-01-13T18:44:39;3.00;;;1.75;;
42846;SDS011;28495;49.916;14.536;2023-01-13T18:50:00;3.03;;;1.40;;
42846;SDS011;28495;49.916;14.536;2023-01-13T18:55:21;1.70;;;1.33;;
42846;SDS011;28495;49.916;14.536;2023-01-13T19:00:42;2.17;;;1.00;;
42846;SDS011;28495;49.916;14.536;2023-01-13T19:06:03;2.75;;;1.30;;
42846;SDS011;28495;49.916;14.536;2023-01-13T19:11:26;1.80;;;1.27;;
42846;SDS011;28495;49.916;14.536;2023-01-13T19:16:51;1.33;;;0.90;;
42846;SDS011;28495;49.916;14.536;2023-01-13T19:22:12;3.70;;;1.13;;
42846;SDS011;28495;49.916;14.536;2023-01-13T19:27:34;3.33;;;1.38;;
42846;SDS011;28495;49.916;14.536;2023-01-13T19:32:55;3.58;;;1.38;;
42846;SDS011;28495;49.916;14.536;2023-01-13T19:38:15;2.85;;;1.35;;
42846;SDS011;28495;49.916;14.536;2023-01-13T19:43:36;2.50;;;1.23;;
42846;SDS011;28495;49.916;14.536;2023-01-13T19:49:16;3.88;;;1.10;;
42846;SDS011;28495;49.916;14.536;2023-01-13T19:54:37;2.45;;;1.25;;
42846;SDS011;28495;49.916;14.536;2023-01-13T19:59:57;4.32;;;1.25;;
42846;SDS011;28495;49.916;14.536;2023-01-13T20:05:19;2.38;;;0.70;;
42846;SDS011;28495;49.916;14.536;2023-01-13T20:10:43;2.08;;;0.98;;
42846;SDS011;28495;49.916;14.536;2023-01-13T20:16:05;4.45;;;1.25;;
42846;SDS011;28495;49.916;14.536;2023-01-13T20:21:26;2.75;;;1.10;;
42846;SDS011;28495;49.916;14.536;2023-01-13T20:26:47;2.42;;;0.80;;
42846;SDS011;28495;49.916;14.536;2023-01-13T20:32:07;4.07;;;0.90;;
42846;SDS011;28495;49.916;14.536;2023-01-13T20:37:28;3.10;;;0.93;;
42846;SDS011;28495;49.916;14.536;2023-01-13T20:42:49;2.92;;;1.00;;
42846;SDS011;28495;49.916;14.536;2023-01-13T20:48:11;3.03;;;1.30;;
42846;SDS011;28495;49.916;14.536;2023-01-13T20:53:32;7.07;;;1.13;;
42846;SDS011;28495;49.916;14.536;2023-01-13T20:58:53;2.72;;;0.93;;
42846;SDS011;28495;49.916;14.536;2023-01-13T21:04:14;2.45;;;1.10;;
42846;SDS011;28495;49.916;14.536;2023-01-13T21:09:35;3.15;;;1.20;;
42846;SDS011;28495;49.916;14.536;2023-01-13T21:14:56;3.33;;;0.98;;
42846;SDS011;28495;49.916;14.536;2023-01-13T21:20:36;1.85;;;1.00;;
42846;SDS011;28495;49.916;14.536;2023-01-13T21:25:59;3.60;;;1.15;;
42846;SDS011;28495;49.916;14.536;2023-01-13T21:31:20;3.33;;;1.02;;
42846;SDS011;28495;49.916;14.536;2023-01-13T21:36:40;1.45;;;0.90;;
42846;SDS011;28495;49.916;14.536;2023-01-13T21:42:02;2.08;;;0.80;;
42846;SDS011;28495;49.916;14.536;2023-01-13T21:47:41;2.70;;;0.80;;
42846;SDS011;28495;49.916;14.536;2023-01-13T21:53:08;3.83;;;1.10;;
42846;SDS011;28495;49.916;14.536;2023-01-13T21:58:30;1.83;;;0.82;;
42846;SDS011;28495;49.916;14.536;2023-01-13T22:03:51;6.32;;;1.35;;
42846;SDS011;28495;49.916;14.536;2023-01-13T22:09:31;1.83;;;0.85;;
42846;SDS011;28495;49.916;14.536;2023-01-13T22:14:51;10.35;;;1.67;;
42846;SDS011;28495;49.916;14.536;2023-01-13T22:20:14;2.28;;;1.20;;
42846;SDS011;28495;49.916;14.536;2023-01-13T22:25:34;4.10;;;0.82;;
42846;SDS011;28495;49.916;14.536;2023-01-13T22:30:55;3.70;;;1.17;;
42846;SDS011;28495;49.916;14.536;2023-01-13T22:36:16;4.68;;;1.00;;
42846;SDS011;28495;49.916;14.536;2023-01-13T22:41:37;4.18;;;1.50;;
42846;SDS011;28495;49.916;14.536;2023-01-13T22:46:58;3.20;;;1.30;;
42846;SDS011;28495;49.916;14.536;2023-01-13T22:52:19;2.00;;;1.00;;
42846;SDS011;28495;49.916;14.536;2023-01-13T22:57:41;2.20;;;1.10;;
42846;SDS011;28495;49.916;14.536;2023-01-13T23:03:07;2.85;;;1.48;;
42846;SDS011;28495;49.916;14.536;2023-01-13T23:08:28;3.75;;;0.95;;
42846;SDS011;28495;49.916;14.536;2023-01-13T23:13:49;2.58;;;0.98;;
42846;SDS011;28495;49.916;14.536;2023-01-13T23:19:16;4.18;;;1.20;;
42846;SDS011;28495;49.916;14.536;2023-01-13T23:24:37;4.90;;;1.00;;
42846;SDS011;28495;49.916;14.536;2023-01-13T23:29:58;3.38;;;1.00;;
42846;SDS011;28495;49.916;14.536;2023-01-13T23:35:18;2.25;;;0.70;;
42846;SDS011;28495;49.916;14.536;2023-01-13T23:40:40;4.80;;;1.00;;
42846;SDS011;28495;49.916;14.536;2023-01-13T23:46:02;1.08;;;0.90;;
42846;SDS011;28495;49.916;14.536;2023-01-13T23:51:24;2.72;;;1.17;;
42846;SDS011;28495;49.916;14.536;2023-01-13T23:56:50;3.38;;;1.20;;
